AAL2062 KMIA-KLAX
Flight info
| Callsign | AAL2062 |
|---|---|
| Flight time | N/A |
| Altitude | 36000 |
| Route | GLADZ4 BAGGS REMIS Y280 LEV J86 KAPAA/N0486F380 J86 ELP J50 SSO J4 WLVRN ESTWD HLYWD1 |
| Aircraft | B77W/H-SDE1E2E3FGHIJ2J3J4J5M1RWXY/LB1D1 |
Departure
| Time | N/A |
|---|---|
| Airport | Miami International Airport (KMIA) |
Arrival
| Time | 2026-05-08 02:35 |
|---|---|
| Airport | Los Angeles International Airport (KLAX) |
| Time | Latitude | Longitude | Altitude | Speed | Heading |
|---|---|---|---|---|---|
| 2026-05-08 01:27 | 32.25769 | -109.21246 | 36082 ft | 487 kts | 282° |
| 2026-05-08 01:27 | 32.26653 | -109.25100 | 36089 ft | 486 kts | 284° |
| 2026-05-08 01:28 | 32.29119 | -109.32654 | 36083 ft | 493 kts | 290° |
| 2026-05-08 01:28 | 32.31770 | -109.40188 | 36102 ft | 498 kts | 290° |
| 2026-05-08 01:29 | 32.34419 | -109.47747 | 36101 ft | 500 kts | 291° |
| 2026-05-08 01:29 | 32.37063 | -109.55320 | 36107 ft | 497 kts | 291° |
| 2026-05-08 01:30 | 32.39709 | -109.62924 | 36110 ft | 500 kts | 291° |
| 2026-05-08 01:30 | 32.42210 | -109.70129 | 36143 ft | 501 kts | 291° |
| 2026-05-08 01:31 | 32.44752 | -109.77468 | 36162 ft | 501 kts | 291° |
| 2026-05-08 01:31 | 32.47391 | -109.85110 | 36157 ft | 503 kts | 291° |
| 2026-05-08 01:32 | 32.50041 | -109.92799 | 36118 ft | 500 kts | 292° |
| 2026-05-08 01:32 | 32.52684 | -110.00487 | 36089 ft | 506 kts | 292° |
| 2026-05-08 01:33 | 32.55333 | -110.08211 | 36123 ft | 503 kts | 292° |
| 2026-05-08 01:33 | 32.57965 | -110.15904 | 36118 ft | 499 kts | 292° |
| 2026-05-08 01:34 | 32.60524 | -110.23401 | 36114 ft | 487 kts | 293° |
| 2026-05-08 01:34 | 32.63075 | -110.30890 | 36098 ft | 489 kts | 293° |
| 2026-05-08 01:35 | 32.65611 | -110.38355 | 36046 ft | 485 kts | 293° |
| 2026-05-08 01:35 | 32.68153 | -110.45851 | 36055 ft | 488 kts | 294° |
| 2026-05-08 01:36 | 32.70632 | -110.53183 | 36044 ft | 484 kts | 294° |
| 2026-05-08 01:36 | 32.73137 | -110.60605 | 36052 ft | 485 kts | 294° |
| 2026-05-08 01:37 | 32.75641 | -110.68046 | 36044 ft | 483 kts | 294° |
| 2026-05-08 01:37 | 32.78133 | -110.75465 | 36044 ft | 484 kts | 295° |
| 2026-05-08 01:38 | 32.80631 | -110.82918 | 36042 ft | 486 kts | 295° |
| 2026-05-08 01:38 | 32.83123 | -110.90371 | 36014 ft | 484 kts | 295° |
| 2026-05-08 01:39 | 32.85620 | -110.97856 | 36045 ft | 487 kts | 295° |
| 2026-05-08 01:39 | 32.88110 | -111.05340 | 36018 ft | 486 kts | 295° |
| 2026-05-08 01:40 | 32.90595 | -111.12825 | 36000 ft | 487 kts | 295° |
| 2026-05-08 01:40 | 32.93078 | -111.20323 | 35973 ft | 486 kts | 296° |
| 2026-05-08 01:41 | 32.95541 | -111.27780 | 35941 ft | 485 kts | 296° |
| 2026-05-08 01:41 | 32.98001 | -111.35243 | 35943 ft | 485 kts | 296° |
| 2026-05-08 01:42 | 33.00476 | -111.42764 | 35933 ft | 488 kts | 296° |
| 2026-05-08 01:42 | 33.02943 | -111.50290 | 35907 ft | 485 kts | 296° |
| 2026-05-08 01:43 | 33.05402 | -111.57800 | 35897 ft | 486 kts | 296° |
| 2026-05-08 01:43 | 33.07853 | -111.65308 | 35897 ft | 485 kts | 296° |
| 2026-05-08 01:44 | 33.10249 | -111.72663 | 35882 ft | 485 kts | 296° |
| 2026-05-08 01:44 | 33.12579 | -111.79834 | 35880 ft | 487 kts | 296° |
| 2026-05-08 01:45 | 33.14998 | -111.87294 | 35882 ft | 487 kts | 296° |
| 2026-05-08 01:45 | 33.17433 | -111.94823 | 35866 ft | 487 kts | 296° |
| 2026-05-08 01:46 | 33.19875 | -112.02392 | 35867 ft | 485 kts | 296° |
| 2026-05-08 01:46 | 33.22295 | -112.09909 | 35918 ft | 487 kts | 296° |
| 2026-05-08 01:47 | 33.24701 | -112.17406 | 35968 ft | 484 kts | 296° |
| 2026-05-08 01:47 | 33.27116 | -112.24945 | 36005 ft | 483 kts | 296° |
| 2026-05-08 01:48 | 33.30710 | -112.36199 | 35947 ft | 483 kts | 296° |
| 2026-05-08 01:48 | 33.33087 | -112.43665 | 35899 ft | 484 kts | 296° |
| 2026-05-08 01:49 | 33.35487 | -112.51221 | 35873 ft | 482 kts | 296° |
| 2026-05-08 01:49 | 33.37854 | -112.58691 | 35869 ft | 482 kts | 296° |
| 2026-05-08 01:50 | 33.40226 | -112.66198 | 35867 ft | 482 kts | 295° |
| 2026-05-08 01:50 | 33.42471 | -112.73319 | 35862 ft | 481 kts | 295° |
| 2026-05-08 01:51 | 33.44806 | -112.80741 | 35868 ft | 482 kts | 295° |
| 2026-05-08 01:51 | 33.47319 | -112.88151 | 35873 ft | 479 kts | 298° |
| 2026-05-08 01:52 | 33.49984 | -112.95501 | 35872 ft | 477 kts | 298° |
| 2026-05-08 01:52 | 33.52640 | -113.02881 | 35892 ft | 477 kts | 298° |
| 2026-05-08 01:53 | 33.55256 | -113.10189 | 35880 ft | 477 kts | 298° |
| 2026-05-08 01:53 | 33.57859 | -113.17490 | 35892 ft | 476 kts | 298° |
| 2026-05-08 01:54 | 33.60462 | -113.24811 | 35889 ft | 477 kts | 298° |
| 2026-05-08 01:54 | 33.63061 | -113.32143 | 35915 ft | 476 kts | 298° |
| 2026-05-08 01:55 | 33.65654 | -113.39476 | 35915 ft | 475 kts | 298° |
| 2026-05-08 01:55 | 33.68225 | -113.46767 | 35917 ft | 475 kts | 298° |
| 2026-05-08 01:56 | 33.70812 | -113.54118 | 35927 ft | 476 kts | 298° |
| 2026-05-08 01:56 | 33.73386 | -113.61448 | 35930 ft | 475 kts | 298° |
| 2026-05-08 01:57 | 33.75941 | -113.68743 | 35914 ft | 476 kts | 297° |
| 2026-05-08 01:57 | 33.78453 | -113.75932 | 35903 ft | 475 kts | 297° |
| 2026-05-08 01:58 | 33.81009 | -113.83297 | 35902 ft | 474 kts | 297° |
| 2026-05-08 01:58 | 33.83510 | -113.90658 | 35902 ft | 476 kts | 297° |
| 2026-05-08 01:59 | 33.86000 | -113.98007 | 35894 ft | 475 kts | 297° |
| 2026-05-08 01:59 | 33.88497 | -114.05383 | 35876 ft | 476 kts | 297° |
| 2026-05-08 02:00 | 33.90742 | -114.12871 | 35846 ft | 480 kts | 288° |
| 2026-05-08 02:00 | 33.92125 | -114.20767 | 35835 ft | 482 kts | 286° |
| 2026-05-08 02:01 | 33.93471 | -114.28722 | 35825 ft | 482 kts | 286° |
| 2026-05-08 02:01 | 33.94812 | -114.36669 | 35828 ft | 482 kts | 286° |
| 2026-05-08 02:02 | 33.96145 | -114.44598 | 35824 ft | 482 kts | 286° |
| 2026-05-08 02:02 | 33.97475 | -114.52539 | 35826 ft | 482 kts | 286° |
| 2026-05-08 02:03 | 33.98802 | -114.60487 | 35831 ft | 482 kts | 286° |
| 2026-05-08 02:03 | 34.00103 | -114.68319 | 35831 ft | 482 kts | 285° |
| 2026-05-08 02:04 | 34.01386 | -114.76072 | 35842 ft | 483 kts | 285° |
| 2026-05-08 02:04 | 34.02663 | -114.83817 | 35851 ft | 482 kts | 285° |
| 2026-05-08 02:05 | 34.03977 | -114.91819 | 35859 ft | 482 kts | 285° |
| 2026-05-08 02:05 | 34.05271 | -114.99739 | 35864 ft | 482 kts | 285° |
| 2026-05-08 02:06 | 34.06565 | -115.07674 | 35872 ft | 481 kts | 285° |
| 2026-05-08 02:06 | 34.07854 | -115.15600 | 35867 ft | 482 kts | 285° |
| 2026-05-08 02:07 | 34.09136 | -115.23526 | 35873 ft | 480 kts | 285° |
| 2026-05-08 02:07 | 34.10409 | -115.31419 | 35890 ft | 479 kts | 285° |
| 2026-05-08 02:08 | 34.11638 | -115.39075 | 35911 ft | 479 kts | 285° |
| 2026-05-08 02:08 | 34.12920 | -115.47100 | 35929 ft | 479 kts | 285° |
| 2026-05-08 02:09 | 34.14177 | -115.54995 | 35947 ft | 480 kts | 285° |
| 2026-05-08 02:09 | 34.15427 | -115.62891 | 35972 ft | 478 kts | 284° |
| 2026-05-08 02:10 | 34.16095 | -115.70864 | 35998 ft | 485 kts | 270° |
| 2026-05-08 02:10 | 34.15437 | -115.78755 | 35920 ft | 481 kts | 266° |
| 2026-05-08 02:11 | 34.15058 | -115.82690 | 35133 ft | 482 kts | 266° |
| 2026-05-08 02:11 | 34.14665 | -115.86763 | 34225 ft | 484 kts | 266° |
| 2026-05-08 02:11 | 34.14275 | -115.90776 | 33456 ft | 483 kts | 266° |
| 2026-05-08 02:11 | 34.13882 | -115.94811 | 32651 ft | 484 kts | 266° |
| 2026-05-08 02:12 | 34.13486 | -115.98862 | 31804 ft | 486 kts | 266° |
| 2026-05-08 02:12 | 34.13090 | -116.02916 | 30940 ft | 488 kts | 266° |
| 2026-05-08 02:12 | 34.12693 | -116.06965 | 30316 ft | 485 kts | 266° |
| 2026-05-08 02:12 | 34.12299 | -116.10967 | 29867 ft | 481 kts | 266° |
| 2026-05-08 02:13 | 34.11901 | -116.15029 | 29359 ft | 495 kts | 266° |
| 2026-05-08 02:13 | 34.11493 | -116.19154 | 28790 ft | 496 kts | 266° |
| 2026-05-08 02:13 | 34.11083 | -116.23267 | 28214 ft | 491 kts | 266° |
| 2026-05-08 02:13 | 34.10675 | -116.27353 | 27651 ft | 486 kts | 266° |
| 2026-05-08 02:14 | 34.10271 | -116.31365 | 27080 ft | 481 kts | 266° |
| 2026-05-08 02:14 | 34.09850 | -116.35344 | 26487 ft | 477 kts | 265° |
| 2026-05-08 02:14 | 34.09427 | -116.39276 | 25898 ft | 473 kts | 265° |
| 2026-05-08 02:14 | 34.09007 | -116.43186 | 25300 ft | 469 kts | 266° |
| 2026-05-08 02:15 | 34.08590 | -116.47054 | 24710 ft | 465 kts | 265° |
| 2026-05-08 02:15 | 34.08176 | -116.50890 | 24191 ft | 459 kts | 265° |
| 2026-05-08 02:15 | 34.07767 | -116.54659 | 24099 ft | 443 kts | 266° |
| 2026-05-08 02:15 | 34.07375 | -116.58255 | 24105 ft | 426 kts | 266° |
| 2026-05-08 02:16 | 34.07021 | -116.61731 | 23946 ft | 415 kts | 267° |
| 2026-05-08 02:16 | 34.06705 | -116.65200 | 23189 ft | 420 kts | 266° |
| 2026-05-08 02:16 | 34.06391 | -116.68659 | 22530 ft | 421 kts | 266° |
| 2026-05-08 02:16 | 34.06070 | -116.72158 | 21962 ft | 419 kts | 266° |
| 2026-05-08 02:17 | 34.05751 | -116.75608 | 21409 ft | 418 kts | 266° |
| 2026-05-08 02:17 | 34.05426 | -116.79100 | 20832 ft | 416 kts | 266° |
| 2026-05-08 02:17 | 34.05106 | -116.82529 | 20270 ft | 414 kts | 266° |
| 2026-05-08 02:17 | 34.04812 | -116.85657 | 19742 ft | 413 kts | 266° |
| 2026-05-08 02:18 | 34.04489 | -116.89089 | 19152 ft | 412 kts | 265° |
| 2026-05-08 02:18 | 34.04034 | -116.92886 | 18595 ft | 408 kts | 263° |
| 2026-05-08 02:18 | 34.03589 | -116.96229 | 18057 ft | 396 kts | 263° |
| 2026-05-08 02:18 | 34.03163 | -116.99434 | 17754 ft | 384 kts | 263° |
| 2026-05-08 02:19 | 34.02745 | -117.02599 | 17263 ft | 382 kts | 263° |
| 2026-05-08 02:19 | 34.02351 | -117.05739 | 16841 ft | 378 kts | 264° |
| 2026-05-08 02:19 | 34.01980 | -117.08867 | 16524 ft | 371 kts | 264° |
| 2026-05-08 02:19 | 34.01618 | -117.11934 | 16215 ft | 369 kts | 264° |
| 2026-05-08 02:20 | 34.01257 | -117.14989 | 15886 ft | 370 kts | 264° |
| 2026-05-08 02:20 | 34.00893 | -117.18050 | 15561 ft | 369 kts | 264° |
| 2026-05-08 02:20 | 34.00530 | -117.21099 | 15230 ft | 367 kts | 263° |
| 2026-05-08 02:20 | 34.00168 | -117.24122 | 14911 ft | 364 kts | 263° |
| 2026-05-08 02:21 | 33.99808 | -117.27131 | 14522 ft | 364 kts | 263° |
| 2026-05-08 02:21 | 33.99444 | -117.30164 | 14114 ft | 362 kts | 263° |
| 2026-05-08 02:21 | 33.99089 | -117.33142 | 13745 ft | 358 kts | 263° |
| 2026-05-08 02:21 | 33.98748 | -117.36063 | 13430 ft | 355 kts | 263° |
| 2026-05-08 02:22 | 33.98403 | -117.39004 | 13101 ft | 354 kts | 263° |
| 2026-05-08 02:22 | 33.98056 | -117.41951 | 12774 ft | 352 kts | 263° |
| 2026-05-08 02:22 | 33.97714 | -117.44851 | 12454 ft | 347 kts | 263° |
| 2026-05-08 02:22 | 33.97404 | -117.47690 | 12120 ft | 341 kts | 269° |
| 2026-05-08 02:23 | 33.97587 | -117.50508 | 11820 ft | 332 kts | 282° |
| 2026-05-08 02:23 | 33.98018 | -117.53209 | 11549 ft | 326 kts | 284° |
| 2026-05-08 02:23 | 33.98481 | -117.55847 | 11238 ft | 319 kts | 284° |
| 2026-05-08 02:23 | 33.98939 | -117.58422 | 10781 ft | 311 kts | 284° |
| 2026-05-08 02:24 | 33.99389 | -117.60956 | 10355 ft | 312 kts | 284° |
| 2026-05-08 02:24 | 33.99819 | -117.63381 | 9932 ft | 313 kts | 284° |
| 2026-05-08 02:24 | 34.00252 | -117.65830 | 9564 ft | 312 kts | 283° |
| 2026-05-08 02:24 | 34.00563 | -117.68064 | 9185 ft | 307 kts | 272° |
| 2026-05-08 02:25 | 34.00487 | -117.70293 | 8857 ft | 298 kts | 266° |
| 2026-05-08 02:25 | 34.00248 | -117.72899 | 8458 ft | 288 kts | 265° |
| 2026-05-08 02:25 | 34.00004 | -117.75355 | 8070 ft | 279 kts | 265° |
| 2026-05-08 02:25 | 33.99780 | -117.77622 | 7698 ft | 272 kts | 265° |
| 2026-05-08 02:26 | 33.99561 | -117.79839 | 7416 ft | 264 kts | 265° |
| 2026-05-08 02:26 | 33.99346 | -117.82025 | 7101 ft | 264 kts | 265° |
| 2026-05-08 02:26 | 33.99133 | -117.84223 | 6813 ft | 262 kts | 265° |
| 2026-05-08 02:26 | 33.98935 | -117.86264 | 6570 ft | 259 kts | 265° |
| 2026-05-08 02:27 | 33.98748 | -117.88187 | 6350 ft | 256 kts | 265° |
| 2026-05-08 02:27 | 33.98524 | -117.90475 | 6094 ft | 252 kts | 265° |
| 2026-05-08 02:27 | 33.98320 | -117.92551 | 5863 ft | 249 kts | 265° |
| 2026-05-08 02:27 | 33.98118 | -117.94607 | 5626 ft | 246 kts | 265° |
| 2026-05-08 02:28 | 33.97919 | -117.96628 | 5391 ft | 243 kts | 265° |
| 2026-05-08 02:28 | 33.97709 | -117.98648 | 5153 ft | 241 kts | 265° |
| 2026-05-08 02:28 | 33.97500 | -118.00632 | 4919 ft | 238 kts | 265° |
| 2026-05-08 02:28 | 33.97302 | -118.02603 | 4658 ft | 236 kts | 265° |
| 2026-05-08 02:29 | 33.97116 | -118.04516 | 4428 ft | 233 kts | 265° |
| 2026-05-08 02:29 | 33.96930 | -118.06433 | 4187 ft | 230 kts | 265° |
| 2026-05-08 02:29 | 33.96746 | -118.08326 | 3946 ft | 227 kts | 265° |
| 2026-05-08 02:29 | 33.96563 | -118.10205 | 3706 ft | 225 kts | 265° |
| 2026-05-08 02:30 | 33.96381 | -118.12049 | 3589 ft | 216 kts | 265° |
| 2026-05-08 02:30 | 33.96211 | -118.13796 | 3578 ft | 203 kts | 265° |
| 2026-05-08 02:30 | 33.96053 | -118.15424 | 3574 ft | 190 kts | 266° |
| 2026-05-08 02:30 | 33.95900 | -118.16993 | 3542 ft | 189 kts | 266° |
| 2026-05-08 02:31 | 33.95748 | -118.18517 | 3306 ft | 178 kts | 266° |
| 2026-05-08 02:31 | 33.95615 | -118.19847 | 3093 ft | 169 kts | 265° |
| 2026-05-08 02:31 | 33.95479 | -118.21204 | 2885 ft | 158 kts | 265° |
| 2026-05-08 02:31 | 33.95350 | -118.22484 | 2693 ft | 149 kts | 265° |
| 2026-05-08 02:32 | 33.95227 | -118.23702 | 2507 ft | 146 kts | 265° |
| 2026-05-08 02:32 | 33.95103 | -118.24915 | 2321 ft | 147 kts | 264° |
| 2026-05-08 02:32 | 33.94978 | -118.26135 | 2128 ft | 147 kts | 264° |
| 2026-05-08 02:32 | 33.94854 | -118.27350 | 1936 ft | 147 kts | 263° |
| 2026-05-08 02:33 | 33.94730 | -118.28564 | 1743 ft | 147 kts | 263° |
| 2026-05-08 02:33 | 33.94606 | -118.29780 | 1546 ft | 147 kts | 262° |
| 2026-05-08 02:33 | 33.94482 | -118.30989 | 1351 ft | 147 kts | 262° |
| 2026-05-08 02:33 | 33.94358 | -118.32204 | 1154 ft | 146 kts | 262° |
| 2026-05-08 02:34 | 33.94235 | -118.33408 | 962 ft | 145 kts | 262° |
| 2026-05-08 02:34 | 33.94111 | -118.34599 | 758 ft | 143 kts | 262° |
| 2026-05-08 02:34 | 33.93983 | -118.35776 | 566 ft | 142 kts | 262° |
| 2026-05-08 02:34 | 33.93865 | -118.36949 | 387 ft | 141 kts | 262° |
| 2026-05-08 02:35 | 33.93754 | -118.38113 | 210 ft | 141 kts | 262° |
| 2026-05-08 02:35 | 33.93633 | -118.39229 | 141 ft | 118 kts | 263° |
| 2026-05-08 02:35 | 33.93608 | -118.39837 | 141 ft | 46 kts | 286° |
| 2026-05-08 02:35 | 33.93656 | -118.40108 | 141 ft | 28 kts | 264° |
| 2026-05-08 02:36 | 33.93648 | -118.40202 | 141 ft | 0 kts | 264° |
| 2026-05-08 02:36 | 33.93648 | -118.40203 | 141 ft | 0 kts | 264° |
| 2026-05-08 02:37 | 33.93645 | -118.40234 | 141 ft | 8 kts | 264° |
| 2026-05-08 02:37 | 33.93634 | -118.40348 | 141 ft | 19 kts | 264° |
| 2026-05-08 02:37 | 33.93614 | -118.40540 | 141 ft | 27 kts | 262° |
| 2026-05-08 02:38 | 33.93595 | -118.40747 | 141 ft | 16 kts | 266° |
| 2026-05-08 02:38 | 33.93623 | -118.40867 | 141 ft | 15 kts | 316° |
| 2026-05-08 02:38 | 33.93718 | -118.40906 | 141 ft | 14 kts | 348° |
| 2026-05-08 02:38 | 33.93794 | -118.40918 | 141 ft | 9 kts | 353° |
| 2026-05-08 02:39 | 33.93846 | -118.40907 | 141 ft | 8 kts | 51° |
| 2026-05-08 02:39 | 33.93862 | -118.40876 | 141 ft | 1 kts | 59° |
| 2026-05-08 02:39 | 33.93876 | -118.40831 | 141 ft | 7 kts | 84° |
| 2026-05-08 02:39 | 33.93883 | -118.40775 | 141 ft | 4 kts | 63° |
| 2026-05-08 02:40 | 33.93903 | -118.40753 | 141 ft | 0 kts | 31° |
| 2026-05-08 02:40 | 33.93911 | -118.40748 | 141 ft | 4 kts | 32° |
| 2026-05-08 02:40 | 33.93935 | -118.40730 | 141 ft | 1 kts | 31° |
| 2026-05-08 02:40 | 33.93938 | -118.40728 | 141 ft | 0 kts | 31° |